Time;durP1;ratioP1;P1;durP2;ratioP2;P2;SDS_P1;SDS_P2;PMS_P1;PMS_P2;Temp;Humidity;BMP_temperature;BMP_pressure;BME280_temperature;BME280_humidity;BME280_pressure;Samples;Min_cycle;Max_cycle;Signal;HPM_P1;HPM_P2
2022/10/28 00:02:08;;;;;;;2.20;2.10;;;21.70;99.90;;;;;;5034126;28;20814;-67
2022/10/28 00:04:35;;;;;;;1.80;1.70;;;21.70;99.90;;;;;;5034374;28;20911;-68
2022/10/28 00:07:02;;;;;;;1.67;1.60;;;21.70;99.90;;;;;;5034241;28;20532;-67
2022/10/28 00:09:29;;;;;;;1.83;1.73;;;21.70;99.90;;;;;;5034270;28;20543;-68
2022/10/28 00:11:57;;;;;;;1.37;1.30;;;21.70;99.90;;;;;;5033201;28;20479;-68
2022/10/28 00:14:24;;;;;;;1.33;1.30;;;21.60;99.90;;;;;;5034085;28;20528;-68
2022/10/28 00:16:51;;;;;;;1.43;1.33;;;21.60;99.90;;;;;;5034202;28;20449;-68
2022/10/28 00:19:18;;;;;;;1.40;1.40;;;21.70;99.90;;;;;;5034019;28;20476;-67
2022/10/28 00:21:45;;;;;;;2.23;1.63;;;21.60;99.90;;;;;;5033349;28;20487;-68
2022/10/28 00:24:13;;;;;;;1.77;1.67;;;21.60;99.90;;;;;;5033942;28;20441;-67
2022/10/28 00:26:42;;;;;;;1.90;1.80;;;21.60;99.90;;;;;;5033965;28;20515;-68
2022/10/28 00:29:12;;;;;;;2.00;1.73;;;21.60;99.90;;;;;;5033943;28;20443;-68
2022/10/28 00:31:39;;;;;;;5.60;2.10;;;21.60;99.90;;;;;;5033456;28;20472;-68
2022/10/28 00:34:09;;;;;;;1.73;1.63;;;21.60;99.90;;;;;;5013970;28;20448;-68
2022/10/28 00:36:38;;;;;;;1.80;1.70;;;21.60;99.90;;;;;;5013995;28;20529;-68
2022/10/28 00:39:13;;;;;;;2.17;1.97;;;21.60;99.90;;;;;;5013867;28;20446;-68
2022/10/28 00:41:42;;;;;;;1.70;1.70;;;21.60;99.90;;;;;;5027434;28;20845;-68
2022/10/28 00:44:43;;;;;;;1.27;1.27;;;21.60;99.90;;;;;;5033556;28;20447;-68
2022/10/28 00:47:15;;;;;;;2.00;1.87;;;21.60;99.90;;;;;;5033672;28;20930;-68
2022/10/28 00:49:42;;;;;;;1.50;1.40;;;21.60;99.90;;;;;;5033482;28;20448;-68
2022/10/28 00:52:18;;;;;;;1.90;1.80;;;21.60;99.90;;;;;;5032998;28;20453;-68
2022/10/28 00:54:46;;;;;;;1.63;1.53;;;21.60;99.90;;;;;;5033429;28;20555;-68
2022/10/28 00:57:15;;;;;;;2.20;1.57;;;21.60;99.90;;;;;;5033342;28;20451;-68
2022/10/28 00:59:48;;;;;;;2.77;2.63;;;21.60;99.90;;;;;;5033128;28;20449;-68
2022/10/28 01:02:15;;;;;;;1.50;1.40;;;21.50;99.90;;;;;;5032955;28;21008;-68
2022/10/28 01:04:42;;;;;;;1.63;1.53;;;21.60;99.90;;;;;;5033227;28;20449;-68
2022/10/28 01:07:10;;;;;;;2.00;1.77;;;21.60;99.90;;;;;;5033127;28;20537;-68
2022/10/28 01:09:38;;;;;;;2.30;2.20;;;21.60;99.90;;;;;;5032976;28;20468;-68
2022/10/28 01:12:12;;;;;;;1.50;1.40;;;21.50;99.90;;;;;;5032690;28;20469;-68
2022/10/28 01:15:03;;;;;;;1.47;1.47;;;21.50;99.90;;;;;;5033131;28;20452;-68
2022/10/28 01:17:47;;;;;;;1.60;1.50;;;21.50;99.90;;;;;;5032984;28;20459;-68
2022/10/28 01:20:59;;;;;;;1.70;1.70;;;21.60;99.90;;;;;;5032501;28;20471;-68
2022/10/28 01:23:34;;;;;;;1.67;1.57;;;21.50;99.90;;;;;;5032036;28;20940;-68
2022/10/28 01:26:23;;;;;;;1.50;1.40;;;21.50;99.90;;;;;;5032886;28;20448;-68
2022/10/28 01:29:32;;;;;;;1.60;1.50;;;21.50;99.90;;;;;;5032656;28;20441;-68
2022/10/28 01:32:10;;;;;;;2.03;1.83;;;21.50;99.90;;;;;;5025020;28;20473;-68
2022/10/28 01:34:47;;;;;;;1.80;1.70;;;21.50;99.90;;;;;;5032722;28;20449;-68
2022/10/28 01:37:17;;;;;;;1.47;1.47;;;21.50;99.90;;;;;;5032641;28;20445;-68
2022/10/28 01:39:48;;;;;;;1.77;1.67;;;21.50;99.90;;;;;;5032322;28;20661;-68
2022/10/28 01:42:24;;;;;;;1.53;1.43;;;21.50;99.90;;;;;;5031860;28;20485;-67
2022/10/28 01:44:57;;;;;;;1.73;1.63;;;21.50;99.90;;;;;;5032542;28;20535;-67
2022/10/28 01:47:31;;;;;;;2.00;1.90;;;21.50;99.90;;;;;;5032478;28;20539;-68
2022/10/28 01:50:03;;;;;;;1.90;1.80;;;21.50;99.90;;;;;;5031818;28;20463;-68
2022/10/28 01:52:32;;;;;;;2.00;1.90;;;21.50;99.90;;;;;;5032305;28;20809;-67
2022/10/28 01:55:03;;;;;;;2.60;1.77;;;21.50;99.90;;;;;;5032412;28;20459;-68
2022/10/28 01:57:33;;;;;;;2.40;2.23;;;21.50;99.90;;;;;;5032353;28;20445;-68
2022/10/28 02:00:01;;;;;;;1.67;1.57;;;21.50;99.90;;;;;;5031706;28;20477;-67
2022/10/28 02:02:33;;;;;;;1.50;1.50;;;21.50;99.90;;;;;;5031805;28;20480;-68
2022/10/28 02:05:05;;;;;;;2.07;1.97;;;21.50;99.90;;;;;;5032266;28;20457;-68
2022/10/28 02:07:33;;;;;;;1.90;1.80;;;21.50;99.90;;;;;;5032172;28;20445;-68
2022/10/28 02:10:10;;;;;;;2.17;2.07;;;21.50;99.90;;;;;;5031557;28;21045;-67
2022/10/28 02:12:38;;;;;;;1.60;1.50;;;21.50;99.90;;;;;;5031960;28;20791;-68
2022/10/28 02:15:23;;;;;;;2.30;2.20;;;21.50;99.90;;;;;;5031930;28;20445;-67
2022/10/28 02:18:08;;;;;;;2.00;1.90;;;21.50;99.90;;;;;;5032012;28;20491;-68
2022/10/28 02:20:43;;;;;;;1.83;1.73;;;21.50;99.90;;;;;;5031487;28;20555;-68
2022/10/28 02:23:26;;;;;;;1.90;1.80;;;21.50;99.90;;;;;;5031843;28;20481;-68
2022/10/28 02:25:59;;;;;;;1.90;1.80;;;21.50;99.90;;;;;;5031850;28;20790;-68
2022/10/28 02:28:37;;;;;;;1.60;1.50;;;21.50;99.90;;;;;;5031489;28;20441;-68
2022/10/28 02:31:08;;;;;;;1.50;1.40;;;21.50;99.90;;;;;;5031495;28;20468;-68
2022/10/28 02:33:39;;;;;;;1.77;1.77;;;21.50;99.90;;;;;;5031744;28;20449;-68
2022/10/28 02:36:11;;;;;;;1.90;1.80;;;21.50;99.90;;;;;;5031712;28;20445;-67
2022/10/28 02:38:42;;;;;;;1.73;1.63;;;21.50;99.90;;;;;;5031483;28;20549;-68
2022/10/28 02:41:16;;;;;;;2.17;2.10;;;21.50;99.90;;;;;;5031271;28;20989;-68
2022/10/28 02:43:44;;;;;;;2.20;2.00;;;21.50;99.90;;;;;;5031632;28;20792;-68
2022/10/28 02:46:13;;;;;;;1.77;1.67;;;21.50;99.90;;;;;;5031068;28;20445;-68
2022/10/28 02:48:45;;;;;;;2.37;2.27;;;21.50;99.90;;;;;;5031338;28;20455;-68
2022/10/28 02:51:15;;;;;;;1.80;1.70;;;21.50;99.90;;;;;;5031177;28;20472;-67
2022/10/28 02:53:50;;;;;;;1.90;1.80;;;21.50;99.90;;;;;;5031635;28;20536;-68
2022/10/28 02:56:19;;;;;;;2.40;2.30;;;21.50;99.90;;;;;;5031377;28;20455;-68
2022/10/28 02:58:47;;;;;;;1.93;1.70;;;21.50;99.90;;;;;;5031506;28;20447;-67
2022/10/28 03:01:14;;;;;;;1.83;1.73;;;21.50;99.90;;;;;;5031033;28;20990;-67
2022/10/28 03:03:43;;;;;;;1.93;1.83;;;21.50;99.90;;;;;;5031385;28;20965;-68
2022/10/28 03:06:09;;;;;;;2.27;2.17;;;21.50;99.90;;;;;;5031216;28;20446;-68
2022/10/28 03:08:36;;;;;;;1.80;1.70;;;21.50;99.90;;;;;;5031344;28;20535;-68
2022/10/28 03:11:03;;;;;;;2.50;1.67;;;21.40;99.90;;;;;;5031001;28;20556;-68
2022/10/28 03:13:30;;;;;;;2.10;2.00;;;21.40;99.90;;;;;;5031554;28;20441;-68
2022/10/28 03:15:57;;;;;;;1.33;1.27;;;21.40;99.90;;;;;;5030916;28;20550;-68
2022/10/28 03:18:23;;;;;;;1.90;1.80;;;21.40;99.90;;;;;;5031359;28;20527;-68
2022/10/28 03:20:51;;;;;;;1.40;1.30;;;21.40;99.90;;;;;;5030962;28;20461;-67
2022/10/28 03:23:18;;;;;;;1.60;1.60;;;21.40;99.90;;;;;;5031116;28;20491;-68
2022/10/28 03:25:45;;;;;;;1.40;1.40;;;21.40;99.90;;;;;;5030880;28;20451;-68
2022/10/28 03:28:12;;;;;;;2.33;2.10;;;21.50;99.90;;;;;;5031222;28;20488;-68
2022/10/28 03:30:39;;;;;;;2.00;1.90;;;21.40;99.90;;;;;;5030898;28;20471;-68
2022/10/28 03:33:06;;;;;;;2.00;1.90;;;21.50;99.90;;;;;;5031256;28;20540;-68
2022/10/28 03:35:32;;;;;;;2.00;1.80;;;21.40;99.90;;;;;;5030918;28;20532;-68
2022/10/28 03:38:01;;;;;;;2.20;2.10;;;21.40;99.90;;;;;;5031125;28;20527;-68
2022/10/28 03:40:27;;;;;;;1.77;1.67;;;21.40;99.90;;;;;;5030769;28;20461;-68
2022/10/28 03:42:54;;;;;;;1.30;1.30;;;21.40;99.90;;;;;;5031054;28;20896;-68
2022/10/28 03:45:21;;;;;;;2.23;2.13;;;21.40;99.90;;;;;;5031259;28;20472;-68
2022/10/28 03:47:48;;;;;;;2.27;2.17;;;21.40;99.90;;;;;;5034617;28;20536;-68
2022/10/28 03:50:15;;;;;;;2.10;2.00;;;21.40;99.90;;;;;;5057475;22;20473;-61
2022/10/28 03:52:43;;;;;;;1.73;1.63;;;21.50;99.90;;;;;;5006599;28;20418;-60
2022/10/28 03:55:11;;;;;;;1.60;1.57;;;21.50;99.90;;;;;;4998239;28;20810;-60
2022/10/28 03:57:38;;;;;;;2.40;1.80;;;21.40;99.90;;;;;;4995163;28;20463;-60
2022/10/28 04:00:06;;;;;;;2.27;1.90;;;21.40;99.90;;;;;;4994891;28;20526;-61
2022/10/28 04:02:33;;;;;;;1.83;1.70;;;21.40;99.90;;;;;;4995026;28;20487;-60
2022/10/28 04:04:59;;;;;;;1.70;1.60;;;21.40;99.90;;;;;;4994708;28;21041;-61
2022/10/28 04:07:26;;;;;;;1.87;1.77;;;21.50;99.90;;;;;;4994985;28;20486;-60
2022/10/28 04:09:53;;;;;;;1.87;1.77;;;21.40;99.90;;;;;;4994702;28;20876;-60
2022/10/28 04:12:21;;;;;;;1.63;1.63;;;21.40;99.90;;;;;;4994750;28;20502;-61
2022/10/28 04:14:48;;;;;;;2.13;2.03;;;21.40;99.90;;;;;;4994566;28;20549;-61
2022/10/28 04:17:15;;;;;;;1.67;1.57;;;21.40;99.90;;;;;;4994922;28;20863;-62
2022/10/28 04:19:42;;;;;;;2.10;1.80;;;21.40;99.90;;;;;;4994620;28;20451;-61
2022/10/28 04:22:08;;;;;;;1.60;1.50;;;21.40;99.90;;;;;;4994570;28;20861;-59
2022/10/28 04:24:35;;;;;;;1.37;1.37;;;21.50;99.90;;;;;;4994331;28;20451;-62
2022/10/28 04:27:02;;;;;;;2.03;1.57;;;21.40;99.90;;;;;;4994594;28;20462;-60
2022/10/28 04:29:31;;;;;;;1.50;1.40;;;21.40;99.90;;;;;;4994677;28;20454;-60
2022/10/28 04:31:58;;;;;;;7.43;2.03;;;21.40;99.90;;;;;;4994362;28;20471;-62
2022/10/28 04:34:25;;;;;;;1.70;1.60;;;21.50;99.90;;;;;;4994199;28;20447;-61
2022/10/28 04:36:52;;;;;;;1.73;1.67;;;21.50;99.90;;;;;;4994511;28;20447;-61
2022/10/28 04:39:19;;;;;;;1.50;1.50;;;21.50;99.90;;;;;;4994382;28;20874;-62
2022/10/28 04:41:45;;;;;;;2.10;1.37;;;21.50;99.90;;;;;;4993958;28;20542;-61
2022/10/28 04:44:12;;;;;;;1.97;1.80;;;21.40;99.90;;;;;;4994105;28;20443;-62
2022/10/28 04:46:40;;;;;;;2.60;2.40;;;21.50;99.90;;;;;;4994300;28;20972;-62
2022/10/28 04:49:07;;;;;;;2.10;1.80;;;21.50;99.90;;;;;;4994084;28;20443;-62
2022/10/28 04:51:34;;;;;;;4.00;3.10;;;21.50;99.90;;;;;;4993780;28;20571;-61
2022/10/28 04:54:01;;;;;;;8.13;4.00;;;21.60;99.90;;;;;;4993724;28;20475;-67
2022/10/28 04:56:29;;;;;;;12.37;6.07;;;21.60;99.90;;;;;;4993466;28;20874;-65
2022/10/28 17:34:57;;;;;;;2.23;1.40;;;23.00;99.90;;;;;;5109924;27;21153;-63
2022/10/28 17:37:24;;;;;;;2.33;2.13;;;23.00;99.90;;;;;;5092396;28;20434;-63
2022/10/28 17:39:51;;;;;;;3.40;1.43;;;23.10;99.90;;;;;;5090098;28;20895;-63
2022/10/28 17:42:18;;;;;;;2.10;1.70;;;23.20;99.90;;;;;;5090643;28;20478;-62
2022/10/28 17:44:44;;;;;;;2.10;1.90;;;23.30;99.90;;;;;;5091847;28;20560;-61
2022/10/28 17:47:12;;;;;;;2.00;1.90;;;23.40;99.90;;;;;;5098847;28;20472;-62
2022/10/28 17:49:38;;;;;;;2.63;1.87;;;23.50;99.90;;;;;;5090297;28;20835;-62
2022/10/28 17:52:07;;;;;;;1.73;1.63;;;23.60;99.90;;;;;;5090354;28;20447;-62
2022/10/28 17:54:33;;;;;;;1.97;1.60;;;23.70;99.90;;;;;;5106678;28;20508;-63
2022/10/28 17:57:00;;;;;;;1.67;1.53;;;23.70;99.90;;;;;;5110673;28;20532;-65
2022/10/28 17:59:27;;;;;;;2.40;2.30;;;23.80;99.90;;;;;;5111139;28;20472;-66
2022/10/28 18:01:54;;;;;;;2.13;2.00;;;23.80;99.90;;;;;;5110615;28;20524;-62
2022/10/28 18:04:25;;;;;;;2.07;1.97;;;23.90;99.90;;;;;;5109627;28;20441;-62
2022/10/28 18:06:52;;;;;;;2.03;1.60;;;23.90;99.90;;;;;;5098758;28;20474;-63
